Time;durP1;ratioP1;P1;durP2;ratioP2;P2;SDS_P1;SDS_P2;PMS_P1;PMS_P2;Temp;Humidity;BMP_temperature;BMP_pressure;BME280_temperature;BME280_humidity;BME280_pressure;Samples;Min_cycle;Max_cycle;Signal;HPM_P1;HPM_P2
2024/04/05 00:00:31;;;;;;;4.40;0.90;;;;;19.90;100002.00;;;;2041969;28;21222;-57
2024/04/05 00:01:31;;;;;;;2.30;0.77;;;;;19.90;100003.00;;;;2052130;28;20215;-57
2024/04/05 00:02:32;;;;;;;3.63;1.10;;;;;19.80;100008.00;;;;2050644;28;20335;-56
2024/04/05 00:03:32;;;;;;;5.63;1.17;;;;;19.80;100005.00;;;;2051999;28;20931;-57
2024/04/05 00:04:33;;;;;;;3.63;0.80;;;;;19.90;100002.00;;;;2050544;28;20678;-56
2024/04/05 00:05:34;;;;;;;3.33;0.90;;;;;19.90;99998.00;;;;2043143;28;20215;-57
2024/04/05 00:06:35;;;;;;;3.50;1.10;;;;;19.90;100004.00;;;;2052829;28;20232;-57
2024/04/05 00:07:39;;;;;;;3.75;1.05;;;;;19.90;99993.00;;;;2052033;28;20266;-57
2024/04/05 00:08:39;;;;;;;2.42;0.95;;;;;19.90;100008.00;;;;2052625;28;20219;-57
2024/04/05 00:09:40;;;;;;;3.23;1.00;;;;;19.90;100006.00;;;;2051873;28;20215;-57
2024/04/05 00:10:41;;;;;;;2.40;0.77;;;;;19.90;99998.00;;;;2042607;28;20774;-57
2024/04/05 00:11:41;;;;;;;3.13;0.80;;;;;19.90;99996.00;;;;2051284;28;20219;-57
2024/04/05 00:12:41;;;;;;;3.37;0.93;;;;;19.90;100004.00;;;;2052842;28;20261;-57
2024/04/05 00:13:42;;;;;;;3.07;1.00;;;;;19.90;100004.00;;;;2052695;28;20219;-57
2024/04/05 00:14:42;;;;;;;3.77;0.90;;;;;19.50;100018.00;;;;2053966;28;20222;-57
2024/04/05 00:15:43;;;;;;;3.93;0.77;;;;;19.80;100004.00;;;;2043023;28;20803;-57
2024/04/05 00:16:43;;;;;;;2.33;0.50;;;;;19.90;99997.00;;;;2051053;28;20219;-57
2024/04/05 00:17:44;;;;;;;3.40;1.03;;;;;19.90;99996.00;;;;2052202;28;20265;-57
2024/04/05 00:18:45;;;;;;;3.13;1.27;;;;;19.90;100000.00;;;;2051407;28;20246;-57
2024/04/05 00:19:45;;;;;;;2.57;0.70;;;;;19.90;99999.00;;;;2049600;28;20670;-57
2024/04/05 00:20:46;;;;;;;3.63;0.87;;;;;19.80;100006.00;;;;2043107;28;20235;-57
2024/04/05 00:21:47;;;;;;;3.10;0.98;;;;;19.90;99997.00;;;;2051294;28;20255;-57
2024/04/05 00:22:47;;;;;;;2.97;0.90;;;;;19.90;99896.00;;;;2052596;28;20227;-57
2024/04/05 00:23:49;;;;;;;4.60;0.93;;;;;19.90;99996.00;;;;2048699;28;20219;-57
2024/04/05 00:24:49;;;;;;;2.38;0.63;;;;;19.80;99992.00;;;;2052674;28;20203;-57
2024/04/05 00:25:57;;;;;;;2.93;0.60;;;;;19.80;99998.00;;;;2038780;28;20461;-57
2024/04/05 00:26:57;;;;;;;3.05;0.80;;;;;19.80;99997.00;;;;2059407;28;20238;-57
2024/04/05 00:27:58;;;;;;;3.37;0.80;;;;;19.90;99993.00;;;;2053797;28;20219;-57
2024/04/05 00:28:58;;;;;;;2.87;0.90;;;;;19.80;100001.00;;;;2052044;28;20242;-57
2024/04/05 00:30:02;;;;;;;2.40;1.00;;;;;19.90;99984.00;;;;2047209;28;20231;-56
2024/04/05 00:31:04;;;;;;;2.72;0.90;;;;;19.80;99994.00;;;;2039721;28;20224;-57
2024/04/05 00:32:05;;;;;;;2.70;0.70;;;;;19.80;99996.00;;;;2051920;28;20223;-57
2024/04/05 00:33:05;;;;;;;2.67;0.80;;;;;19.80;99991.00;;;;2050543;28;20314;-57
2024/04/05 00:34:05;;;;;;;2.60;1.00;;;;;19.90;99992.00;;;;2052361;28;20631;-57
2024/04/05 00:35:06;;;;;;;2.77;1.10;;;;;19.80;99980.00;;;;2052220;28;20635;-57
2024/04/05 00:36:06;;;;;;;3.10;0.83;;;;;19.90;100009.00;;;;2042331;28;20488;-57
2024/04/05 00:37:07;;;;;;;3.10;0.80;;;;;19.80;99989.00;;;;2052744;28;20223;-57
2024/04/05 00:38:07;;;;;;;2.50;0.80;;;;;19.90;99986.00;;;;2051705;28;20215;-62
2024/04/05 00:39:07;;;;;;;2.97;0.70;;;;;19.90;99984.00;;;;2052550;28;20219;-59
2024/04/05 00:40:08;;;;;;;2.47;0.83;;;;;19.80;99982.00;;;;2045293;28;20216;-58
2024/04/05 00:41:08;;;;;;;3.77;1.00;;;;;19.90;99986.00;;;;2042586;28;20219;-57
2024/04/05 00:42:09;;;;;;;3.70;1.00;;;;;19.80;99985.00;;;;2052025;28;20223;-58
2024/04/05 00:43:09;;;;;;;3.93;0.90;;;;;19.90;99975.00;;;;2051960;28;20212;-58
2024/04/05 00:44:09;;;;;;;3.00;0.97;;;;;19.90;99973.00;;;;2052531;28;20216;-57
2024/04/05 00:45:10;;;;;;;2.03;0.60;;;;;19.80;99976.00;;;;2042157;28;20223;-57
2024/04/05 00:46:10;;;;;;;3.37;0.90;;;;;19.40;99971.00;;;;2052551;28;20223;-56
2024/04/05 00:47:11;;;;;;;2.60;0.77;;;;;19.80;99969.00;;;;2052709;28;20239;-56
2024/04/05 00:48:13;;;;;;;2.63;0.70;;;;;19.80;99973.00;;;;2056042;28;20855;-56
2024/04/05 00:49:13;;;;;;;3.58;1.20;;;;;19.80;99973.00;;;;2052295;28;20228;-57
2024/04/05 00:50:13;;;;;;;4.33;0.90;;;;;19.80;99967.00;;;;2036844;28;20219;-57
2024/04/05 00:51:14;;;;;;;3.40;1.00;;;;;19.90;99972.00;;;;2042451;28;20240;-58
2024/04/05 00:52:14;;;;;;;3.27;0.93;;;;;19.90;99976.00;;;;2035476;29;20221;-57
2024/04/05 00:53:23;;;;;;;2.83;0.70;;;;;19.80;99969.00;;;;2051192;28;20212;-56
2024/04/05 00:54:24;;;;;;;3.88;0.98;;;;;19.80;99968.00;;;;2052572;28;20246;-57
2024/04/05 00:55:24;;;;;;;2.63;0.80;;;;;19.80;99975.00;;;;2041945;28;20211;-57
2024/04/05 00:56:25;;;;;;;4.17;0.80;;;;;19.80;99975.00;;;;2051960;28;20655;-57
2024/04/05 00:57:25;;;;;;;3.53;0.80;;;;;19.80;99971.00;;;;2050851;28;20262;-57
2024/04/05 00:58:28;;;;;;;2.97;0.63;;;;;19.80;99970.00;;;;2050953;28;20211;-57
2024/04/05 00:59:29;;;;;;;2.50;0.77;;;;;19.80;99972.00;;;;2050997;28;20301;-57
2024/04/05 01:00:29;;;;;;;2.93;0.97;;;;;19.80;99971.00;;;;2041189;28;20216;-57
2024/04/05 01:01:30;;;;;;;3.20;1.10;;;;;19.80;99970.00;;;;2043196;28;20248;-57
2024/04/05 01:02:30;;;;;;;3.70;0.80;;;;;19.80;99972.00;;;;2043122;28;20236;-57
2024/04/05 01:03:30;;;;;;;2.10;0.67;;;;;19.90;99968.00;;;;2050929;28;20805;-57
2024/04/05 01:04:31;;;;;;;4.00;0.80;;;;;19.80;99975.00;;;;2046411;28;20216;-56
2024/04/05 01:05:31;;;;;;;2.87;0.93;;;;;19.80;99971.00;;;;2042420;28;20224;-57
2024/04/05 01:06:31;;;;;;;2.50;0.90;;;;;19.80;99969.00;;;;2051772;28;20226;-57
2024/04/05 01:07:32;;;;;;;2.73;0.87;;;;;19.80;99968.00;;;;2050828;28;20227;-57
2024/04/05 01:08:32;;;;;;;3.50;0.90;;;;;19.80;99971.00;;;;2052303;28;20234;-57
2024/04/05 01:09:33;;;;;;;4.40;1.00;;;;;19.80;99970.00;;;;2051733;28;20255;-57
2024/04/05 01:10:35;;;;;;;2.30;0.67;;;;;19.80;100028.00;;;;2044554;28;20253;-57
2024/04/05 01:11:35;;;;;;;2.95;0.88;;;;;19.80;99889.00;;;;2056078;28;20598;-57
2024/04/05 01:12:36;;;;;;;4.60;0.90;;;;;19.80;99961.00;;;;2061499;28;20666;-57
2024/04/05 01:13:36;;;;;;;2.90;0.80;;;;;19.80;99963.00;;;;2052490;28;20912;-57
2024/04/05 01:14:37;;;;;;;2.77;1.00;;;;;19.80;99963.00;;;;2051140;28;20703;-57
2024/04/05 01:15:37;;;;;;;2.50;0.87;;;;;19.80;99960.00;;;;2042658;28;20711;-56
2024/04/05 01:16:38;;;;;;;4.50;1.07;;;;;19.80;99966.00;;;;2051024;28;20726;-57
2024/04/05 01:17:38;;;;;;;2.80;0.80;;;;;19.80;99966.00;;;;2051500;28;20215;-58
2024/04/05 01:18:38;;;;;;;1.90;0.70;;;;;19.80;99966.00;;;;2051977;28;20211;-59
2024/04/05 01:19:38;;;;;;;2.10;0.90;;;;;19.80;99960.00;;;;2055511;28;20222;-58
2024/04/05 01:20:39;;;;;;;2.60;0.97;;;;;19.80;99958.00;;;;2041520;28;20227;-57
2024/04/05 01:21:39;;;;;;;2.67;0.83;;;;;19.80;99952.00;;;;2049753;28;20224;-57
2024/04/05 01:22:41;;;;;;;2.57;0.63;;;;;19.80;99950.00;;;;2043744;28;20228;-57
2024/04/05 01:23:41;;;;;;;2.78;1.00;;;;;19.80;99954.00;;;;2034976;28;20213;-57
2024/04/05 01:24:42;;;;;;;3.70;1.50;;;;;19.80;99951.00;;;;2051514;28;20234;-57
2024/04/05 01:25:42;;;;;;;2.93;0.90;;;;;19.80;99948.00;;;;2042498;28;20821;-57
2024/04/05 01:26:43;;;;;;;2.53;0.83;;;;;19.80;99947.00;;;;2051221;28;20347;-57
2024/04/05 01:27:43;;;;;;;3.20;0.80;;;;;19.80;99947.00;;;;2052757;28;20282;-56
2024/04/05 01:28:43;;;;;;;2.00;0.80;;;;;19.80;99949.00;;;;2050783;28;20211;-57
2024/04/05 01:29:44;;;;;;;3.33;1.03;;;;;19.90;99953.00;;;;2056765;28;20250;-56
2024/04/05 01:30:44;;;;;;;2.00;0.60;;;;;19.80;99946.00;;;;2041551;28;20212;-57
2024/04/05 01:31:45;;;;;;;2.47;0.80;;;;;19.80;99942.00;;;;2050859;28;20214;-57
2024/04/05 01:32:52;;;;;;;2.43;0.97;;;;;19.80;99936.00;;;;2051305;28;20211;-57
2024/04/05 01:33:54;;;;;;;3.05;1.00;;;;;19.80;99946.00;;;;2050589;28;20204;-57
2024/04/05 01:34:54;;;;;;;3.05;1.00;;;;;19.80;99929.00;;;;2051913;28;20739;-57
2024/04/05 01:35:54;;;;;;;4.77;1.20;;;;;19.80;99934.00;;;;2041592;28;20209;-56
2024/04/05 01:36:55;;;;;;;2.73;0.90;;;;;19.80;99942.00;;;;2052483;28;20215;-56
2024/04/05 01:37:55;;;;;;;2.70;0.70;;;;;19.80;99941.00;;;;2049632;28;20209;-57
2024/04/05 01:38:56;;;;;;;2.00;0.70;;;;;19.80;99934.00;;;;2052301;28;20258;-57
2024/04/05 01:39:56;;;;;;;4.77;1.03;;;;;19.80;99930.00;;;;2050899;28;20215;-57
2024/04/05 01:40:56;;;;;;;3.93;1.00;;;;;19.80;99948.00;;;;2040041;28;20235;-57
2024/04/05 01:41:57;;;;;;;5.30;1.00;;;;;19.80;99949.00;;;;2048181;28;20204;-57
2024/04/05 01:42:57;;;;;;;3.30;0.97;;;;;19.80;99945.00;;;;2050676;28;20216;-57
2024/04/05 01:43:58;;;;;;;3.17;1.03;;;;;19.40;99945.00;;;;2052339;28;20204;-56
2024/04/05 01:44:58;;;;;;;2.60;0.80;;;;;19.80;99961.00;;;;2052137;28;20382;-57
2024/04/05 01:45:58;;;;;;;2.20;0.60;;;;;19.80;99939.00;;;;2048303;28;21050;-57
2024/04/05 01:46:59;;;;;;;3.53;0.87;;;;;19.80;99943.00;;;;2059912;28;20441;-57
2024/04/05 01:47:59;;;;;;;2.60;0.67;;;;;19.80;99946.00;;;;2050796;28;20215;-57
2024/04/05 01:48:59;;;;;;;4.33;1.13;;;;;19.80;99935.00;;;;2051549;28;20250;-57
2024/04/05 01:50:01;;;;;;;2.87;0.70;;;;;19.80;99938.00;;;;2051300;28;20218;-56
2024/04/05 01:51:01;;;;;;;1.90;0.70;;;;;19.80;99948.00;;;;2041356;28;20270;-57
2024/04/05 01:52:02;;;;;;;2.57;0.77;;;;;19.80;99944.00;;;;2051143;28;20207;-57
2024/04/05 01:53:02;;;;;;;2.53;0.90;;;;;19.80;99948.00;;;;2051532;28;20699;-57
2024/04/05 01:54:03;;;;;;;2.47;0.70;;;;;19.80;99958.00;;;;2052291;28;21070;-57
2024/04/05 01:55:03;;;;;;;2.40;0.90;;;;;19.80;99948.00;;;;2054417;28;20217;-57
2024/04/05 01:56:04;;;;;;;2.50;0.80;;;;;19.80;99954.00;;;;2044610;28;20215;-57
2024/04/05 01:57:04;;;;;;;1.97;0.60;;;;;19.80;99954.00;;;;2051638;28;20250;-57
2024/04/05 01:58:05;;;;;;;3.27;0.73;;;;;19.80;99949.00;;;;2052186;28;20270;-57
2024/04/05 01:59:05;;;;;;;2.87;0.83;;;;;19.80;99949.00;;;;2048366;28;20227;-57
2024/04/05 02:00:06;;;;;;;2.80;0.70;;;;;19.80;99951.00;;;;2054041;28;20226;-57
2024/04/05 02:01:06;;;;;;;2.83;0.90;;;;;19.80;99963.00;;;;2041498;28;20739;-57
2024/04/05 02:02:06;;;;;;;2.63;0.80;;;;;19.80;99953.00;;;;2053868;28;20561;-57
2024/04/05 02:03:07;;;;;;;2.17;0.77;;;;;19.80;99957.00;;;;2054410;28;20313;-57
2024/04/05 02:04:07;;;;;;;4.10;1.10;;;;;19.80;99960.00;;;;2051300;28;20225;-57
2024/04/05 02:05:07;;;;;;;2.00;0.87;;;;;19.80;99961.00;;;;2045979;28;20246;-58
2024/04/05 02:06:14;;;;;;;2.93;0.93;;;;;19.80;99965.00;;;;2050052;28;20400;-57
2024/04/05 02:07:14;;;;;;;2.60;0.75;;;;;19.80;99959.00;;;;2051015;28;20281;-57
2024/04/05 02:08:15;;;;;;;3.20;0.90;;;;;19.80;99957.00;;;;2052237;28;20238;-57
2024/04/05 02:09:16;;;;;;;1.80;0.60;;;;;19.80;99958.00;;;;2051218;28;20241;-57
2024/04/05 02:10:16;;;;;;;3.05;0.90;;;;;19.80;99953.00;;;;2044053;28;20222;-57
2024/04/05 02:11:16;;;;;;;2.93;0.80;;;;;19.80;99948.00;;;;2051473;28;20218;-56
2024/04/05 02:12:17;;;;;;;2.87;0.80;;;;;19.80;99952.00;;;;2052980;28;20222;-56
2024/04/05 02:13:17;;;;;;;2.53;0.77;;;;;19.80;99964.00;;;;2053622;28;20227;-57
2024/04/05 02:14:18;;;;;;;2.30;0.70;;;;;19.80;99951.00;;;;2057357;28;20722;-57
2024/04/05 02:15:18;;;;;;;2.90;0.90;;;;;19.80;99943.00;;;;2044838;28;21115;-57
2024/04/05 02:16:18;;;;;;;3.30;1.20;;;;;19.80;99935.00;;;;2052898;28;20218;-57
2024/04/05 02:17:19;;;;;;;2.27;0.83;;;;;19.80;99942.00;;;;2053829;28;20223;-57
2024/04/05 02:18:19;;;;;;;4.57;0.90;;;;;19.80;99942.00;;;;2053795;28;20254;-57
2024/04/05 02:19:19;;;;;;;3.33;1.20;;;;;19.80;99938.00;;;;2052562;28;20222;-57
2024/04/05 02:20:20;;;;;;;2.37;0.70;;;;;19.80;99937.00;;;;2043982;28;20246;-57
2024/04/05 02:21:21;;;;;;;3.90;1.23;;;;;19.80;99946.00;;;;2052314;28;20219;-57
2024/04/05 02:22:22;;;;;;;3.35;0.70;;;;;19.80;99928.00;;;;2053674;28;20282;-57
2024/04/05 02:23:22;;;;;;;3.10;0.80;;;;;19.80;99936.00;;;;2052323;28;20223;-57
2024/04/05 02:24:22;;;;;;;2.67;1.00;;;;;19.80;99932.00;;;;2053589;28;20557;-57
2024/04/05 02:25:23;;;;;;;2.40;1.00;;;;;19.80;99943.00;;;;2043824;28;20246;-57
2024/04/05 02:26:23;;;;;;;1.70;0.60;;;;;19.80;99933.00;;;;2053030;28;20228;-57
2024/04/05 02:27:24;;;;;;;3.50;1.00;;;;;19.80;99929.00;;;;2045627;28;20212;-57
2024/04/05 02:28:24;;;;;;;2.37;0.80;;;;;19.80;99924.00;;;;2052678;28;20215;-57
2024/04/05 02:29:24;;;;;;;2.17;0.70;;;;;19.80;99925.00;;;;2053614;28;20227;-57
2024/04/05 02:30:25;;;;;;;3.80;0.70;;;;;19.80;99929.00;;;;2042701;28;20246;-57
2024/04/05 02:31:25;;;;;;;2.77;0.93;;;;;19.80;99932.00;;;;2053058;28;20220;-57
2024/04/05 02:32:25;;;;;;;2.33;1.07;;;;;19.80;99929.00;;;;2053434;28;20219;-57
2024/04/05 02:33:26;;;;;;;2.07;0.80;;;;;19.80;99929.00;;;;2052608;28;20251;-57
2024/04/05 02:34:27;;;;;;;3.83;0.82;;;;;19.80;99927.00;;;;2053312;28;20234;-57
2024/04/05 02:35:27;;;;;;;2.40;0.77;;;;;19.80;99929.00;;;;2046281;28;20242;-56
2024/04/05 02:36:27;;;;;;;2.53;0.80;;;;;19.80;99926.00;;;;2053679;28;20246;-57
2024/04/05 02:37:28;;;;;;;3.33;0.90;;;;;19.80;99931.00;;;;2052765;28;20219;-57
2024/04/05 02:38:28;;;;;;;2.17;0.80;;;;;19.80;99930.00;;;;2061199;28;20269;-57
2024/04/05 02:39:28;;;;;;;3.10;0.93;;;;;19.80;99935.00;;;;2052969;28;20222;-57
2024/04/05 02:40:29;;;;;;;3.00;0.80;;;;;19.80;99936.00;;;;2043031;28;20226;-57
2024/04/05 02:41:29;;;;;;;2.40;0.90;;;;;19.80;99954.00;;;;2052940;28;20227;-57
2024/04/05 02:42:29;;;;;;;2.10;0.60;;;;;19.80;99938.00;;;;2051150;28;20223;-57
2024/04/05 02:43:30;;;;;;;4.53;1.27;;;;;19.80;99946.00;;;;2053731;28;20230;-57
2024/04/05 02:44:30;;;;;;;2.70;0.90;;;;;19.80;99938.00;;;;2052060;28;20227;-57
2024/04/05 02:45:30;;;;;;;2.80;0.97;;;;;19.80;99948.00;;;;2044185;28;20250;-56
2024/04/05 02:46:31;;;;;;;2.23;0.80;;;;;19.80;99945.00;;;;2053698;28;20254;-56
2024/04/05 02:47:31;;;;;;;3.00;0.87;;;;;19.80;99942.00;;;;2052621;28;20250;-57
2024/04/05 02:48:32;;;;;;;2.40;0.80;;;;;19.80;99944.00;;;;2053751;28;20278;-57
2024/04/05 02:49:32;;;;;;;2.20;0.67;;;;;19.80;99948.00;;;;2052597;28;20306;-57
2024/04/05 02:50:32;;;;;;;2.63;1.00;;;;;19.30;99947.00;;;;2043582;28;20223;-56
2024/04/05 02:51:33;;;;;;;2.10;0.70;;;;;19.80;99945.00;;;;2051694;28;20223;-57
2024/04/05 02:52:33;;;;;;;2.27;0.77;;;;;19.80;99955.00;;;;2056848;28;20219;-57
2024/04/05 02:53:34;;;;;;;2.53;0.63;;;;;19.80;99953.00;;;;2047667;28;20339;-57
2024/04/05 02:54:34;;;;;;;3.50;0.90;;;;;19.80;99946.00;;;;2052351;28;20246;-57
2024/04/05 02:55:35;;;;;;;3.23;0.77;;;;;19.80;99951.00;;;;2041463;28;20839;-57
2024/04/05 02:56:35;;;;;;;4.17;0.90;;;;;19.80;99957.00;;;;2052483;28;20251;-57
2024/04/05 02:57:36;;;;;;;2.20;0.80;;;;;19.80;99957.00;;;;2052977;28;20230;-57
2024/04/05 02:58:36;;;;;;;3.30;0.80;;;;;19.80;99947.00;;;;2053056;28;20259;-57
2024/04/05 02:59:36;;;;;;;2.67;0.90;;;;;19.80;99949.00;;;;2058808;28;20234;-57
2024/04/05 03:00:38;;;;;;;2.23;0.70;;;;;19.80;99954.00;;;;2043558;28;20254;-57
2024/04/05 03:01:39;;;;;;;2.00;0.70;;;;;19.80;99955.00;;;;2051822;28;20239;-57
2024/04/05 03:02:40;;;;;;;4.90;0.60;;;;;19.80;99958.00;;;;2046661;28;20377;-61
2024/04/05 03:03:40;;;;;;;2.90;0.73;;;;;19.80;99961.00;;;;2052392;28;20212;-59
2024/04/05 03:04:41;;;;;;;2.87;1.10;;;;;19.80;99964.00;;;;2052679;28;20222;-58
2024/04/05 03:05:41;;;;;;;2.93;0.90;;;;;19.80;99963.00;;;;2043324;28;20250;-57
2024/04/05 03:06:41;;;;;;;2.93;0.87;;;;;19.80;99966.00;;;;2057263;28;20210;-58
2024/04/05 03:07:42;;;;;;;2.70;1.10;;;;;19.80;99970.00;;;;2053481;28;20219;-57
2024/04/05 03:08:42;;;;;;;2.47;0.67;;;;;19.80;99968.00;;;;2052450;28;20247;-56
2024/04/05 03:09:42;;;;;;;3.47;0.70;;;;;19.80;99974.00;;;;2053289;28;20297;-57
2024/04/05 03:10:43;;;;;;;2.87;0.80;;;;;19.80;99972.00;;;;2040747;28;20310;-58
2024/04/05 03:11:43;;;;;;;3.10;0.70;;;;;19.80;99976.00;;;;2050903;28;20223;-57
2024/04/05 03:12:43;;;;;;;3.33;0.90;;;;;19.80;99975.00;;;;2047430;28;20291;-58
2024/04/05 03:13:44;;;;;;;3.60;0.57;;;;;19.80;99978.00;;;;2052408;28;20598;-57
2024/04/05 03:14:44;;;;;;;1.97;0.60;;;;;19.80;99973.00;;;;2052922;28;20598;-57
2024/04/05 03:15:45;;;;;;;3.10;0.80;;;;;19.80;99989.00;;;;2052455;28;20812;-57
2024/04/05 03:16:46;;;;;;;2.20;0.68;;;;;19.80;99975.00;;;;2052494;28;20744;-57
2024/04/05 03:17:46;;;;;;;2.27;0.90;;;;;19.80;99971.00;;;;2052549;28;20219;-57
2024/04/05 03:18:46;;;;;;;2.00;0.60;;;;;19.80;99972.00;;;;2051739;28;20226;-57
2024/04/05 03:19:47;;;;;;;2.60;0.80;;;;;19.80;99973.00;;;;2053193;28;20220;-57
2024/04/05 03:20:47;;;;;;;2.83;0.70;;;;;19.80;99974.00;;;;2042184;28;20271;-57
2024/04/05 03:21:47;;;;;;;4.03;1.17;;;;;19.80;99969.00;;;;2051157;28;20219;-57
2024/04/05 03:22:48;;;;;;;2.07;0.70;;;;;19.80;99971.00;;;;2051523;28;20216;-56
2024/04/05 03:23:48;;;;;;;3.03;0.90;;;;;19.80;99979.00;;;;2053013;28;20893;-57
2024/04/05 03:24:48;;;;;;;4.70;0.90;;;;;19.80;99970.00;;;;2051976;28;20846;-57
2024/04/05 03:25:49;;;;;;;3.73;0.90;;;;;19.80;99968.00;;;;2053330;28;20489;-57
2024/04/05 03:26:49;;;;;;;2.97;0.70;;;;;19.80;99966.00;;;;2052588;28;20243;-57
2024/04/05 03:27:50;;;;;;;2.13;0.70;;;;;19.80;99961.00;;;;2052048;28;21061;-57
2024/04/05 03:28:50;;;;;;;2.53;0.70;;;;;19.80;99963.00;;;;2053097;28;20685;-57
2024/04/05 03:29:51;;;;;;;3.27;0.80;;;;;19.80;99957.00;;;;2052407;28;20231;-57
2024/04/05 03:30:51;;;;;;;3.33;0.70;;;;;19.80;99955.00;;;;2042300;28;20208;-57
2024/04/05 03:31:52;;;;;;;2.17;0.73;;;;;19.80;99959.00;;;;2044102;28;20443;-56
2024/04/05 03:32:53;;;;;;;3.63;1.13;;;;;19.80;99961.00;;;;2049112;28;20633;-57
2024/04/05 03:33:53;;;;;;;3.40;0.70;;;;;19.40;99960.00;;;;2047128;28;20211;-57
2024/04/05 03:34:54;;;;;;;3.10;0.80;;;;;19.40;99962.00;;;;2052029;28;20216;-56
2024/04/05 03:35:54;;;;;;;2.60;1.00;;;;;19.80;99959.00;;;;2047295;28;20219;-57
2024/04/05 03:36:54;;;;;;;2.10;0.80;;;;;19.80;99968.00;;;;2045742;28;20683;-56
2024/04/05 03:37:55;;;;;;;3.50;0.90;;;;;19.80;99957.00;;;;2052363;28;20300;-57
2024/04/05 03:39:00;;;;;;;3.50;1.03;;;;;19.80;99964.00;;;;2051634;28;20238;-56
2024/04/05 03:40:00;;;;;;;1.88;0.70;;;;;19.80;99966.00;;;;2055702;28;20884;-57
2024/04/05 03:41:01;;;;;;;3.77;0.80;;;;;19.80;99968.00;;;;2046792;28;20217;-57
2024/04/05 03:42:02;;;;;;;3.20;1.08;;;;;19.80;99967.00;;;;2051229;28;20455;-57
2024/04/05 03:43:02;;;;;;;2.10;0.60;;;;;19.80;99971.00;;;;2054319;28;20215;-56
2024/04/05 03:44:03;;;;;;;3.60;1.03;;;;;19.80;99966.00;;;;2052957;28;20906;-57
2024/04/05 03:45:03;;;;;;;2.27;0.90;;;;;19.80;99968.00;;;;2052014;28;20223;-57
2024/04/05 03:46:03;;;;;;;2.70;0.80;;;;;19.80;99967.00;;;;2043370;28;20225;-56
2024/04/05 03:47:04;;;;;;;2.83;0.70;;;;;19.30;99978.00;;;;2054912;28;20667;-57
2024/04/05 03:48:04;;;;;;;2.80;0.67;;;;;19.80;99968.00;;;;2053078;28;20247;-57
2024/04/05 03:49:08;;;;;;;2.80;0.97;;;;;19.80;99970.00;;;;2052066;28;20309;-56
2024/04/05 03:50:08;;;;;;;3.28;0.90;;;;;19.80;99968.00;;;;2048299;28;20223;-56
2024/04/05 03:51:08;;;;;;;3.00;1.00;;;;;19.80;99963.00;;;;2047174;28;20226;-57
2024/04/05 03:52:09;;;;;;;2.57;0.80;;;;;19.80;99964.00;;;;2051732;28;20220;-56
2024/04/05 03:53:09;;;;;;;2.43;0.87;;;;;19.80;99982.00;;;;2051691;28;20226;-56
2024/04/05 03:54:09;;;;;;;3.13;0.70;;;;;19.80;99966.00;;;;2050420;28;20760;-56
2024/04/05 03:55:10;;;;;;;2.57;0.60;;;;;19.80;100012.00;;;;2043443;28;20980;-57
2024/04/05 03:56:10;;;;;;;2.47;0.73;;;;;19.80;99957.00;;;;2049846;28;20976;-57
2024/04/05 03:57:10;;;;;;;2.20;0.80;;;;;19.80;99955.00;;;;2051839;28;20699;-57
2024/04/05 03:58:11;;;;;;;3.67;0.97;;;;;19.70;99957.00;;;;2053084;28;20642;-57
2024/04/05 03:59:11;;;;;;;2.50;0.60;;;;;19.80;99959.00;;;;2051579;28;20222;-57
2024/04/05 04:00:12;;;;;;;2.70;0.73;;;;;19.80;99965.00;;;;2033779;28;20212;-57
2024/04/05 04:01:12;;;;;;;3.10;0.90;;;;;19.80;99959.00;;;;2043196;28;20220;-57
2024/04/05 04:02:12;;;;;;;2.13;0.67;;;;;19.80;99959.00;;;;2044245;28;20270;-57
2024/04/05 04:03:13;;;;;;;2.63;0.97;;;;;19.80;99964.00;;;;2044723;28;20236;-57
2024/04/05 04:04:13;;;;;;;2.33;1.00;;;;;19.80;99979.00;;;;2040203;28;20646;-57
2024/04/05 04:05:13;;;;;;;2.20;0.80;;;;;19.80;99963.00;;;;2033810;28;20760;-57
2024/04/05 04:06:14;;;;;;;3.87;0.93;;;;;19.80;99969.00;;;;2041389;28;20771;-57
2024/04/05 04:07:15;;;;;;;3.33;0.87;;;;;19.80;99962.00;;;;2044926;28;20224;-57
2024/04/05 04:08:15;;;;;;;2.93;0.90;;;;;19.80;99976.00;;;;2044780;28;20220;-57
2024/04/05 04:09:17;;;;;;;2.50;0.80;;;;;19.80;99980.00;;;;2043946;28;20470;-57
2024/04/05 04:10:17;;;;;;;2.20;0.70;;;;;19.80;99984.00;;;;2034884;28;20228;-57
2024/04/05 04:11:18;;;;;;;3.13;1.07;;;;;19.80;99983.00;;;;2043200;28;20238;-56
2024/04/05 04:12:18;;;;;;;2.93;0.93;;;;;19.80;99984.00;;;;2051851;28;22006;-58
2024/04/05 04:13:19;;;;;;;2.57;0.70;;;;;19.80;99978.00;;;;2051757;28;20209;-58
2024/04/05 04:14:19;;;;;;;3.30;0.90;;;;;19.80;99973.00;;;;2052486;28;20216;-57
2024/04/05 04:15:19;;;;;;;2.60;0.90;;;;;19.80;99973.00;;;;2042698;28;20211;-56
2024/04/05 04:16:20;;;;;;;1.53;0.60;;;;;19.80;99968.00;;;;2052950;28;20204;-57
2024/04/05 04:17:20;;;;;;;2.10;0.67;;;;;19.80;99966.00;;;;2052594;28;20231;-56
2024/04/05 04:18:21;;;;;;;2.27;0.90;;;;;19.80;99968.00;;;;2049313;28;20268;-56
2024/04/05 04:19:21;;;;;;;2.00;1.03;;;;;19.80;99964.00;;;;2052537;28;20219;-56
2024/04/05 04:20:21;;;;;;;4.20;0.80;;;;;19.80;99964.00;;;;2038815;28;20277;-56
2024/04/05 04:21:24;;;;;;;3.80;1.20;;;;;19.80;99969.00;;;;2052038;28;20216;-57
2024/04/05 04:22:24;;;;;;;2.10;0.63;;;;;19.80;99965.00;;;;2052544;28;20215;-56
2024/04/05 04:23:24;;;;;;;1.77;0.63;;;;;19.80;99968.00;;;;2051952;28;20732;-57
2024/04/05 04:24:25;;;;;;;3.27;0.97;;;;;19.80;99964.00;;;;2052949;28;20688;-56
2024/04/05 04:25:25;;;;;;;3.17;0.90;;;;;19.80;99977.00;;;;2044847;28;20223;-57
2024/04/05 04:26:25;;;;;;;3.23;0.70;;;;;19.80;99965.00;;;;2053760;28;21048;-57
2024/04/05 04:27:26;;;;;;;2.33;0.73;;;;;19.80;99965.00;;;;2051994;28;21055;-57
2024/04/05 04:28:30;;;;;;;2.22;0.90;;;;;19.50;99976.00;;;;2052668;28;20631;-57
2024/04/05 04:29:31;;;;;;;2.05;0.70;;;;;19.80;99972.00;;;;2052143;28;20234;-57
2024/04/05 04:30:31;;;;;;;3.33;0.90;;;;;19.70;99976.00;;;;2042509;28;21081;-57
2024/04/05 04:31:32;;;;;;;2.20;0.90;;;;;19.70;99971.00;;;;2052089;28;21245;-57
2024/04/05 04:32:33;;;;;;;2.43;0.90;;;;;19.80;99970.00;;;;2052190;28;20934;-57
2024/04/05 04:33:34;;;;;;;2.10;0.70;;;;;19.70;99968.00;;;;2052717;28;20239;-57
2024/04/05 04:34:34;;;;;;;2.97;0.70;;;;;19.80;99969.00;;;;2052758;28;20611;-57
2024/04/05 04:35:34;;;;;;;1.70;0.53;;;;;19.80;99967.00;;;;2042918;28;20251;-56
2024/04/05 04:36:34;;;;;;;2.60;0.73;;;;;19.80;99974.00;;;;2046245;28;20308;-57
2024/04/05 04:37:35;;;;;;;4.13;0.90;;;;;19.80;99970.00;;;;2051327;28;20229;-57
2024/04/05 04:38:35;;;;;;;2.10;0.60;;;;;19.70;99967.00;;;;2052459;28;20220;-56
2024/04/05 04:39:39;;;;;;;1.90;0.70;;;;;19.70;99968.00;;;;2054881;28;20270;-57
2024/04/05 04:40:40;;;;;;;2.00;0.70;;;;;19.80;99972.00;;;;2042577;28;20230;-57
2024/04/05 04:41:40;;;;;;;2.23;0.80;;;;;19.80;99979.00;;;;2050188;28;20629;-57
2024/04/05 04:42:40;;;;;;;4.07;0.73;;;;;19.80;99976.00;;;;2044160;28;20895;-56
2024/04/05 04:43:41;;;;;;;2.83;0.80;;;;;19.80;99984.00;;;;2059148;28;20751;-56
2024/04/05 04:44:41;;;;;;;2.57;0.80;;;;;19.70;99968.00;;;;2055736;28;20582;-57
2024/04/05 04:45:42;;;;;;;3.03;0.80;;;;;19.70;99968.00;;;;2042562;28;20450;-57
2024/04/05 04:46:42;;;;;;;3.60;0.90;;;;;19.80;99973.00;;;;2053270;28;20215;-57
2024/04/05 04:47:42;;;;;;;1.80;0.60;;;;;19.50;99968.00;;;;2052391;28;20220;-57
2024/04/05 04:48:43;;;;;;;3.63;0.80;;;;;19.70;99966.00;;;;2052200;28;20298;-57
2024/04/05 04:49:43;;;;;;;2.83;1.10;;;;;19.70;99969.00;;;;2051634;28;20226;-56
2024/04/05 04:50:44;;;;;;;1.97;0.60;;;;;19.80;99975.00;;;;2042509;28;20248;-57
2024/04/05 04:51:44;;;;;;;2.07;0.77;;;;;19.70;99969.00;;;;2050471;28;20215;-57
2024/04/05 04:52:44;;;;;;;3.93;0.70;;;;;19.70;99965.00;;;;2052338;28;20211;-57
2024/04/05 04:53:45;;;;;;;2.00;0.70;;;;;19.80;99974.00;;;;2051552;28;20217;-56
2024/04/05 04:54:45;;;;;;;2.13;0.80;;;;;19.80;99966.00;;;;2052223;28;20491;-57
2024/04/05 04:55:45;;;;;;;1.70;0.60;;;;;19.70;99960.00;;;;2042096;28;20431;-57
2024/04/05 04:56:46;;;;;;;2.83;0.90;;;;;19.80;99970.00;;;;2056645;28;20211;-57
2024/04/05 04:57:46;;;;;;;2.33;0.80;;;;;19.70;99964.00;;;;2052165;28;20218;-56
2024/04/05 04:58:47;;;;;;;2.10;0.60;;;;;19.70;99962.00;;;;2052640;28;20246;-57
2024/04/05 04:59:48;;;;;;;2.17;0.70;;;;;19.80;99957.00;;;;2052311;28;20761;-57
2024/04/05 05:00:49;;;;;;;2.37;0.93;;;;;19.80;99958.00;;;;2041598;28;20227;-56
2024/04/05 05:01:49;;;;;;;2.90;0.70;;;;;19.80;99962.00;;;;2044740;28;20220;-60
2024/04/05 05:02:49;;;;;;;2.73;0.77;;;;;19.70;99966.00;;;;2053530;28;20842;-59